createdAt,value
2019-02-22T00:00:33.863Z,25.12
2019-02-22T00:03:01.189Z,23.73
2019-02-22T00:05:28.497Z,24.60
2019-02-22T00:07:55.795Z,22.90
2019-02-22T00:10:23.100Z,25.65
2019-02-22T00:12:50.435Z,23.38
2019-02-22T00:15:17.737Z,24.90
2019-02-22T00:17:45.051Z,26.57
2019-02-22T00:20:12.387Z,26.52
2019-02-22T00:22:39.666Z,29.42
2019-02-22T00:25:06.961Z,26.27
2019-02-22T00:27:34.277Z,28.98
2019-02-22T00:30:01.569Z,29.55
2019-02-22T00:32:28.883Z,26.93
2019-02-22T00:34:56.205Z,27.98
2019-02-22T00:37:23.493Z,28.65
2019-02-22T00:39:50.789Z,28.80
2019-02-22T00:42:18.101Z,28.60
2019-02-22T00:44:45.426Z,28.00
2019-02-22T00:47:12.742Z,29.00
2019-02-22T00:49:40.032Z,29.65
2019-02-22T00:52:07.347Z,31.80
2019-02-22T00:54:34.655Z,27.20
2019-02-22T00:57:01.958Z,28.47
2019-02-22T00:59:29.292Z,29.85
2019-02-22T01:01:56.604Z,29.72
2019-02-22T01:04:23.893Z,32.48
2019-02-22T01:06:51.219Z,32.20
2019-02-22T01:09:18.538Z,30.50
2019-02-22T01:11:45.847Z,31.07
2019-02-22T01:14:13.132Z,31.33
2019-02-22T01:16:40.447Z,30.48
2019-02-22T01:19:07.741Z,34.70
2019-02-22T01:21:35.061Z,30.55
2019-02-22T01:24:02.353Z,34.45
2019-02-22T01:26:29.644Z,33.00
2019-02-22T01:28:56.953Z,35.25
2019-02-22T01:31:24.248Z,31.90
2019-02-22T01:33:54.054Z,31.23
2019-02-22T01:36:20.497Z,29.37
2019-02-22T01:38:47.803Z,32.28
2019-02-22T01:41:15.093Z,33.28
2019-02-22T01:43:42.409Z,31.37
2019-02-22T01:46:09.715Z,31.73
2019-02-22T01:48:37.116Z,33.10
2019-02-22T01:51:04.408Z,29.35
2019-02-22T01:53:31.710Z,32.42
2019-02-22T01:55:59.034Z,31.50
2019-02-22T01:58:26.359Z,32.67
2019-02-22T02:00:53.674Z,31.85
2019-02-22T02:03:20.971Z,32.45
2019-02-22T02:05:48.293Z,32.63
2019-02-22T02:08:15.671Z,31.82
2019-02-22T02:10:53.665Z,32.28
2019-02-22T02:13:11.948Z,31.93
2019-02-22T02:15:39.235Z,32.65
2019-02-22T02:18:06.570Z,33.80
2019-02-22T02:20:33.867Z,33.00
2019-02-22T02:23:01.182Z,34.70
2019-02-22T02:25:28.473Z,33.23
2019-02-22T02:27:55.791Z,33.33
2019-02-22T02:30:23.094Z,32.48
2019-02-22T02:32:50.406Z,32.00
2019-02-22T02:35:17.711Z,30.55
2019-02-22T02:37:45.010Z,33.65
2019-02-22T02:40:12.320Z,32.85
2019-02-22T02:42:39.637Z,30.92
2019-02-22T02:45:06.926Z,33.88
2019-02-22T02:47:34.216Z,33.50
2019-02-22T02:50:01.538Z,34.63
2019-02-22T02:52:28.845Z,33.83
2019-02-22T02:54:56.165Z,34.05
2019-02-22T02:57:23.462Z,34.20
2019-02-22T02:59:50.753Z,33.23
2019-02-22T03:02:19.719Z,35.40
2019-02-22T03:04:47.032Z,32.42
2019-02-22T03:07:15.962Z,34.00
2019-02-22T03:09:43.273Z,34.60
2019-02-22T03:12:10.574Z,32.63
2019-02-22T03:14:37.883Z,32.38
2019-02-22T03:17:05.206Z,33.85
2019-02-22T03:19:32.538Z,32.90
2019-02-22T03:21:59.848Z,36.03
2019-02-22T03:24:27.132Z,33.58
2019-02-22T03:26:54.463Z,34.60
2019-02-22T03:29:21.756Z,34.50
2019-02-22T03:31:49.073Z,37.28
2019-02-22T03:34:16.367Z,37.03
2019-02-22T03:36:43.670Z,33.08
2019-02-22T03:39:10.998Z,32.88
2019-02-22T03:41:38.287Z,33.60
2019-02-22T03:44:05.662Z,36.03
2019-02-22T03:46:32.987Z,31.97
2019-02-22T03:49:00.305Z,33.58
2019-02-22T03:51:27.597Z,34.30
2019-02-22T03:53:57.429Z,33.20
2019-02-22T03:56:23.870Z,31.60
2019-02-22T03:58:51.163Z,34.35
2019-02-22T04:01:18.473Z,34.70
2019-02-22T04:03:45.772Z,33.15
2019-02-22T04:06:13.090Z,34.30
2019-02-22T04:08:40.434Z,33.70
2019-02-22T04:11:07.725Z,34.60
2019-02-22T04:13:35.109Z,35.50
2019-02-22T04:16:02.401Z,33.08
2019-02-22T04:18:29.722Z,34.58
2019-02-22T04:20:57.013Z,34.45
2019-02-22T04:23:24.315Z,33.80
2019-02-22T04:25:51.627Z,33.55
2019-02-22T04:28:18.933Z,35.33
2019-02-22T04:30:46.283Z,33.50
2019-02-22T04:33:13.586Z,30.20
2019-02-22T04:35:40.874Z,33.15
2019-02-22T04:38:08.190Z,32.05
2019-02-22T04:40:35.480Z,32.20
2019-02-22T04:43:02.774Z,34.05
2019-02-22T04:45:30.089Z,29.55
2019-02-22T04:47:57.414Z,31.52
2019-02-22T04:50:24.694Z,30.02
2019-02-22T04:52:52.017Z,30.15
2019-02-22T04:55:19.309Z,31.62
2019-02-22T04:57:46.624Z,31.57
2019-02-22T05:00:13.962Z,29.40
2019-02-22T05:02:41.238Z,31.95
2019-02-22T05:05:08.547Z,31.35
2019-02-22T05:07:35.866Z,28.20
2019-02-22T05:10:03.235Z,32.48
2019-02-22T05:12:30.533Z,30.62
2019-02-22T05:14:57.870Z,30.17
2019-02-22T05:17:25.157Z,29.95
2019-02-22T05:19:52.482Z,30.72
2019-02-22T05:22:19.796Z,27.98
2019-02-22T05:24:47.107Z,31.35
2019-02-22T05:27:14.439Z,30.32
2019-02-22T05:29:41.756Z,31.30
2019-02-22T05:32:09.082Z,26.23
2019-02-22T05:34:36.394Z,29.10
2019-02-22T05:37:03.695Z,27.75
2019-02-22T05:39:31.001Z,28.05
2019-02-22T05:41:58.336Z,25.57
2019-02-22T05:44:25.612Z,26.93
2019-02-22T05:47:00.471Z,24.40
2019-02-22T05:49:22.509Z,26.40
2019-02-22T05:51:49.890Z,28.25
2019-02-22T05:54:17.177Z,29.27
2019-02-22T05:56:44.489Z,27.82
2019-02-22T05:59:11.817Z,26.07
2019-02-22T06:01:39.122Z,23.25
2019-02-22T06:04:06.496Z,23.38
2019-02-22T06:06:33.722Z,23.30
2019-02-22T06:09:01.049Z,23.02
2019-02-22T06:11:28.349Z,23.95
2019-02-22T06:13:55.633Z,22.70
2019-02-22T06:16:22.960Z,21.10
2019-02-22T06:18:50.260Z,24.10
2019-02-22T06:21:17.563Z,20.27
2019-02-22T06:23:44.895Z,21.45
2019-02-22T06:26:12.180Z,23.57
2019-02-22T06:28:39.512Z,20.88
2019-02-22T06:31:06.819Z,20.00
2019-02-22T06:33:34.131Z,22.50
2019-02-22T06:36:01.464Z,23.27
2019-02-22T06:38:28.757Z,20.72
2019-02-22T06:40:56.084Z,22.05
2019-02-22T06:43:23.411Z,20.92
2019-02-22T06:45:50.706Z,21.00
2019-02-22T06:48:18.017Z,20.70
2019-02-22T06:50:45.320Z,18.02
2019-02-22T06:53:12.614Z,19.87
2019-02-22T06:55:39.929Z,19.55
2019-02-22T06:58:07.360Z,17.77
2019-02-22T07:00:34.621Z,17.92
2019-02-22T07:03:01.916Z,17.00
2019-02-22T07:05:29.235Z,19.05
2019-02-22T07:07:56.961Z,17.37
2019-02-22T07:10:24.355Z,17.48
2019-02-22T07:12:59.113Z,15.58
2019-02-22T07:15:26.447Z,18.00
2019-02-22T07:17:53.797Z,16.85
2019-02-22T07:20:21.081Z,15.38
2019-02-22T07:22:48.402Z,16.07
2019-02-22T07:25:15.697Z,15.72
2019-02-22T07:27:43.002Z,17.40
2019-02-22T07:30:10.883Z,17.07
2019-02-22T07:32:38.191Z,16.42
2019-02-22T07:35:06.076Z,16.48
2019-02-22T07:37:33.373Z,16.65
2019-02-22T07:40:00.707Z,16.50
2019-02-22T07:42:27.993Z,17.25
2019-02-22T07:44:55.285Z,15.15
2019-02-22T07:47:22.607Z,18.73
2019-02-22T07:49:49.925Z,15.65
2019-02-22T07:52:17.220Z,16.15
2019-02-22T07:54:44.528Z,15.98
2019-02-22T07:57:11.845Z,15.15
2019-02-22T07:59:39.166Z,16.23
2019-02-22T08:02:06.448Z,15.40
2019-02-22T08:04:33.743Z,15.03
2019-02-22T08:07:01.062Z,15.10
2019-02-22T08:09:28.353Z,15.83
2019-02-22T08:11:55.652Z,14.47
2019-02-22T08:14:22.971Z,15.20
2019-02-22T08:16:50.309Z,15.90
2019-02-22T08:19:17.615Z,15.32
2019-02-22T08:21:44.914Z,13.62
2019-02-22T08:24:12.237Z,13.68
2019-02-22T08:26:39.539Z,14.87
2019-02-22T08:29:06.840Z,14.53
2019-02-22T08:31:34.158Z,14.45
2019-02-22T08:34:01.466Z,12.05
2019-02-22T08:36:28.762Z,10.45
2019-02-22T08:38:56.089Z,9.80
2019-02-22T08:41:23.388Z,10.28
2019-02-22T08:43:50.679Z,9.48
2019-02-22T08:46:17.999Z,10.28
2019-02-22T08:48:45.317Z,8.65
2019-02-22T08:51:12.605Z,9.20
2019-02-22T08:53:39.926Z,8.90
2019-02-22T08:56:07.230Z,10.53
2019-02-22T08:58:34.519Z,8.43
2019-02-22T09:01:01.850Z,9.53
2019-02-22T09:03:29.140Z,8.30
2019-02-22T09:05:56.450Z,9.60
2019-02-22T09:08:23.742Z,9.60
2019-02-22T09:11:00.060Z,8.75
2019-02-22T09:13:19.989Z,9.50
2019-02-22T09:15:47.290Z,8.80
2019-02-22T09:18:14.615Z,9.10
2019-02-22T09:20:41.901Z,9.40
2019-02-22T09:23:09.234Z,10.38
2019-02-22T09:25:36.541Z,9.15
2019-02-22T09:28:03.831Z,9.15
2019-02-22T09:30:31.149Z,8.75
2019-02-22T09:32:58.446Z,8.53
2019-02-22T09:35:25.746Z,8.78
2019-02-22T09:37:53.049Z,9.33
2019-02-22T09:40:20.345Z,8.20
2019-02-22T09:42:47.654Z,8.63
2019-02-22T09:45:14.955Z,7.83
2019-02-22T09:47:42.257Z,7.20
2019-02-22T09:50:10.919Z,8.35
2019-02-22T09:52:38.238Z,8.28
2019-02-22T09:55:06.802Z,9.00
2019-02-22T09:57:34.110Z,7.42
2019-02-22T10:00:01.406Z,7.50
2019-02-22T10:02:28.717Z,7.50
2019-02-22T10:04:56.008Z,6.67
2019-02-22T10:07:23.362Z,6.03
2019-02-22T10:09:50.673Z,7.05
2019-02-22T10:12:17.960Z,7.25
2019-02-22T10:14:45.284Z,7.90
2019-02-22T10:17:12.568Z,8.10
2019-02-22T10:19:39.990Z,6.80
2019-02-22T10:22:07.287Z,8.18
2019-02-22T10:24:34.593Z,7.42
2019-02-22T10:27:01.894Z,7.47
2019-02-22T10:29:29.180Z,7.90
2019-02-22T10:31:56.500Z,7.22
2019-02-22T10:34:23.791Z,6.83
2019-02-22T10:36:51.103Z,8.10
2019-02-22T10:39:18.389Z,7.85
2019-02-22T10:41:45.673Z,7.08
2019-02-22T10:44:17.651Z,7.15
2019-02-22T10:46:41.917Z,6.35
2019-02-22T10:49:09.242Z,7.20
2019-02-22T10:51:36.527Z,6.78
2019-02-22T10:54:03.855Z,6.83
2019-02-22T10:56:31.147Z,6.72
2019-02-22T10:58:58.457Z,6.15
2019-02-22T11:01:25.770Z,6.08
2019-02-22T11:03:53.061Z,7.78
2019-02-22T11:06:20.394Z,5.05
2019-02-22T11:08:47.690Z,5.70
2019-02-22T11:11:14.999Z,5.67
2019-02-22T11:13:42.310Z,5.10
2019-02-22T11:16:09.610Z,5.15
2019-02-22T11:18:39.260Z,5.20
2019-02-22T11:21:05.814Z,5.40
2019-02-22T11:23:33.131Z,4.95
2019-02-22T11:26:00.422Z,3.75
2019-02-22T11:28:27.772Z,4.67
2019-02-22T11:30:55.057Z,4.80
2019-02-22T11:33:22.379Z,4.33
2019-02-22T11:35:49.662Z,4.30
2019-02-22T11:38:16.990Z,4.65
2019-02-22T11:40:44.325Z,4.70
2019-02-22T11:43:11.657Z,5.70
2019-02-22T11:45:38.946Z,4.62
2019-02-22T11:48:09.463Z,4.75
2019-02-22T11:50:35.217Z,4.45
2019-02-22T11:53:02.557Z,5.60
2019-02-22T11:55:29.863Z,4.25
2019-02-22T11:57:57.146Z,3.40
2019-02-22T12:00:24.841Z,3.95
2019-02-22T12:02:52.132Z,4.08
2019-02-22T12:05:19.423Z,3.60
2019-02-22T12:07:46.747Z,2.80
2019-02-22T12:10:14.043Z,3.98
2019-02-22T12:12:41.354Z,2.00
2019-02-22T12:15:14.397Z,2.15
2019-02-22T12:17:41.680Z,2.05
2019-02-22T12:20:09.484Z,2.22
2019-02-22T12:22:36.769Z,2.40
2019-02-22T12:25:05.352Z,3.27
2019-02-22T12:27:32.640Z,2.90
2019-02-22T12:29:59.964Z,2.52
2019-02-22T12:32:27.250Z,3.17
2019-02-22T12:34:54.543Z,6.03
2019-02-22T12:37:21.856Z,4.08
2019-02-22T12:39:49.146Z,5.17
2019-02-22T12:42:16.460Z,5.60
2019-02-22T12:44:43.756Z,4.95
2019-02-22T12:47:11.069Z,3.22
2019-02-22T12:49:40.168Z,5.05
2019-02-22T12:52:07.326Z,4.83
2019-02-22T12:54:34.623Z,3.62
2019-02-22T12:57:01.909Z,2.58
2019-02-22T12:59:29.210Z,2.75
2019-02-22T13:01:56.502Z,3.90
2019-02-22T13:04:23.833Z,4.55
2019-02-22T13:06:51.128Z,7.30
2019-02-22T13:09:18.441Z,5.15
2019-02-22T13:11:45.741Z,5.85
2019-02-22T13:14:13.865Z,3.65
2019-02-22T13:16:41.252Z,3.22
2019-02-22T13:19:08.538Z,4.05
2019-02-22T13:21:35.850Z,4.40
2019-02-22T13:24:03.142Z,3.08
2019-02-22T13:26:30.464Z,2.70
2019-02-22T13:28:57.746Z,3.35
2019-02-22T13:31:30.100Z,4.58
2019-02-22T13:33:54.014Z,3.80
2019-02-22T13:36:21.305Z,5.35
2019-02-22T13:38:48.664Z,3.35
2019-02-22T13:41:15.984Z,3.20
2019-02-22T13:43:43.274Z,3.40
2019-02-22T13:46:10.597Z,5.05
2019-02-22T13:48:37.885Z,4.37
2019-02-22T13:51:05.265Z,4.15
2019-02-22T13:53:32.494Z,2.45
2019-02-22T13:55:59.776Z,3.90
2019-02-22T13:58:27.089Z,2.80
2019-02-22T14:00:54.374Z,4.20
2019-02-22T14:03:21.694Z,2.85
2019-02-22T14:05:48.983Z,3.17
2019-02-22T14:08:16.304Z,3.95
2019-02-22T14:10:43.589Z,3.70
2019-02-22T14:13:10.902Z,3.40
2019-02-22T14:15:38.534Z,2.77
2019-02-22T14:18:05.899Z,3.10
2019-02-22T14:20:33.195Z,3.87
2019-02-22T14:23:00.468Z,3.40
2019-02-22T14:25:27.787Z,3.20
2019-02-22T14:27:55.073Z,3.33
2019-02-22T14:30:22.369Z,3.27
2019-02-22T14:32:49.722Z,4.25
2019-02-22T14:35:17.000Z,3.52
2019-02-22T14:37:44.332Z,3.77
2019-02-22T14:40:12.207Z,3.58
2019-02-22T14:42:39.493Z,3.30
2019-02-22T14:45:07.868Z,4.05
2019-02-22T14:47:35.172Z,4.83
2019-02-22T14:50:02.470Z,4.05
2019-02-22T14:52:29.790Z,4.30
2019-02-22T14:54:57.080Z,7.78
2019-02-22T14:57:24.368Z,7.10
2019-02-22T14:59:51.687Z,7.37
2019-02-22T15:02:18.968Z,6.10
2019-02-22T15:04:46.273Z,4.85
2019-02-22T15:07:13.616Z,7.15
2019-02-22T15:09:40.899Z,3.75
2019-02-22T15:12:08.189Z,6.35
2019-02-22T15:14:35.505Z,5.85
2019-02-22T15:17:16.287Z,7.75
2019-02-22T15:19:43.574Z,10.08
2019-02-22T15:22:10.875Z,7.40
2019-02-22T15:24:38.221Z,7.35
2019-02-22T15:27:05.486Z,6.22
2019-02-22T15:29:32.786Z,6.83
2019-02-22T15:32:00.096Z,5.80
2019-02-22T15:34:27.422Z,6.22
2019-02-22T15:36:54.698Z,5.30
2019-02-22T15:39:21.994Z,6.87
2019-02-22T15:41:49.304Z,5.40
2019-02-22T15:44:16.653Z,5.67
2019-02-22T15:46:43.944Z,5.33
2019-02-22T15:49:11.268Z,7.40
2019-02-22T15:51:38.530Z,8.05
2019-02-22T15:54:05.840Z,5.47
2019-02-22T15:56:33.125Z,4.33
2019-02-22T15:59:00.446Z,6.72
2019-02-22T16:01:27.738Z,8.20
2019-02-22T16:03:56.701Z,8.90
2019-02-22T16:06:24.004Z,5.03
2019-02-22T16:08:51.292Z,5.08
2019-02-22T16:11:18.605Z,5.22
2019-02-22T16:13:45.885Z,5.53
2019-02-22T16:16:22.989Z,6.60
2019-02-22T16:18:42.159Z,7.03
2019-02-22T16:21:09.541Z,3.92
2019-02-22T16:23:36.772Z,4.45
2019-02-22T16:26:04.157Z,4.45
2019-02-22T16:28:31.442Z,4.70
2019-02-22T16:30:58.721Z,5.42
2019-02-22T16:33:26.094Z,4.35
2019-02-22T16:35:53.381Z,6.55
2019-02-22T16:38:20.690Z,4.10
2019-02-22T16:40:47.986Z,5.55
2019-02-22T16:43:15.294Z,4.12
2019-02-22T16:45:42.577Z,4.30
2019-02-22T16:48:09.903Z,4.30
2019-02-22T16:50:37.213Z,4.90
2019-02-22T16:53:04.504Z,7.33
2019-02-22T16:55:31.800Z,5.40
2019-02-22T16:57:59.094Z,4.62
2019-02-22T17:00:26.471Z,4.75
2019-02-22T17:02:53.760Z,5.50
2019-02-22T17:05:21.060Z,6.53
2019-02-22T17:07:48.368Z,5.83
2019-02-22T17:10:15.730Z,5.90
2019-02-22T17:12:43.057Z,6.33
2019-02-22T17:15:10.906Z,8.53
2019-02-22T17:17:38.228Z,7.05
2019-02-22T17:20:14.732Z,6.28
2019-02-22T17:22:42.051Z,9.15
2019-02-22T17:25:13.907Z,8.00
2019-02-22T17:27:41.202Z,6.70
2019-02-22T17:30:12.812Z,7.15
2019-02-22T17:32:40.106Z,7.70
2019-02-22T17:35:07.397Z,7.20
2019-02-22T17:37:34.713Z,8.20
2019-02-22T17:40:01.997Z,8.75
2019-02-22T17:42:29.316Z,8.38
2019-02-22T17:44:56.610Z,7.40
2019-02-22T17:47:23.934Z,8.85
2019-02-22T17:49:51.225Z,7.92
2019-02-22T17:52:18.528Z,9.15
2019-02-22T17:54:45.848Z,8.43
2019-02-22T17:57:13.140Z,9.73
2019-02-22T17:59:40.438Z,10.55
2019-02-22T18:02:07.756Z,10.13
2019-02-22T18:04:35.047Z,10.45
2019-02-22T18:07:02.411Z,12.20
2019-02-22T18:09:29.666Z,11.93
2019-02-22T18:11:56.971Z,11.93
2019-02-22T18:14:24.293Z,12.90
2019-02-22T18:16:51.602Z,14.25
2019-02-22T18:19:18.925Z,12.55
2019-02-22T18:21:46.214Z,14.70
2019-02-22T18:24:13.534Z,15.15
2019-02-22T18:26:40.840Z,15.68
2019-02-22T18:29:08.142Z,15.63
2019-02-22T18:31:35.462Z,15.15
2019-02-22T18:34:02.821Z,14.47
2019-02-22T18:36:30.152Z,14.80
2019-02-22T18:38:57.453Z,14.87
2019-02-22T18:41:24.741Z,15.38
2019-02-22T18:43:52.065Z,16.75
2019-02-22T18:46:19.393Z,16.67
2019-02-22T18:48:47.569Z,15.83
2019-02-22T18:51:14.885Z,14.60
2019-02-22T18:53:42.201Z,17.15
2019-02-22T18:56:09.499Z,18.10
2019-02-22T18:58:36.805Z,19.60
2019-02-22T19:01:04.157Z,19.00
2019-02-22T19:03:31.457Z,17.32
2019-02-22T19:05:58.778Z,18.67
2019-02-22T19:08:32.426Z,19.57
2019-02-22T19:10:55.045Z,20.77
2019-02-22T19:13:22.348Z,18.57
2019-02-22T19:15:49.654Z,14.47
2019-02-22T19:18:16.977Z,18.75
2019-02-22T19:20:44.273Z,15.32
2019-02-22T19:23:11.586Z,19.60
2019-02-22T19:25:38.915Z,20.50
2019-02-22T19:28:06.206Z,21.57
2019-02-22T19:30:33.493Z,19.67
2019-02-22T19:33:00.807Z,21.62
2019-02-22T19:35:28.155Z,21.87
2019-02-22T19:37:55.415Z,20.25
2019-02-22T19:40:23.390Z,21.12
2019-02-22T19:42:50.710Z,21.57
2019-02-22T19:45:18.065Z,22.15
2019-02-22T19:47:45.353Z,19.57
2019-02-22T19:50:13.342Z,19.57
2019-02-22T19:52:40.625Z,21.57
2019-02-22T19:55:10.850Z,20.10
2019-02-22T19:57:38.271Z,20.02
2019-02-22T20:00:07.214Z,19.10
2019-02-22T20:02:34.552Z,16.32
2019-02-22T20:05:01.847Z,16.85
2019-02-22T20:07:29.141Z,17.65
2019-02-22T20:09:56.475Z,17.95
2019-02-22T20:12:23.775Z,14.85
2019-02-22T20:14:51.070Z,15.13
2019-02-22T20:17:18.385Z,15.45
2019-02-22T20:19:45.675Z,16.10
2019-02-22T20:22:12.974Z,14.53
2019-02-22T20:24:40.294Z,15.10
2019-02-22T20:27:07.593Z,14.93
2019-02-22T20:29:34.914Z,13.08
2019-02-22T20:32:02.206Z,12.90
2019-02-22T20:34:29.498Z,13.72
2019-02-22T20:36:56.837Z,14.87
2019-02-22T20:39:24.096Z,15.30
2019-02-22T20:41:51.418Z,16.70
2019-02-22T20:44:18.738Z,13.68
2019-02-22T20:46:46.033Z,14.18
2019-02-22T20:49:13.350Z,15.65
2019-02-22T20:51:40.659Z,13.32
2019-02-22T20:54:07.946Z,14.40
2019-02-22T20:56:44.181Z,15.10
2019-02-22T20:59:11.496Z,15.80
2019-02-22T21:01:38.822Z,14.80
2019-02-22T21:04:06.109Z,14.80
2019-02-22T21:06:33.426Z,15.50
2019-02-22T21:09:00.750Z,15.90
2019-02-22T21:11:28.067Z,14.68
2019-02-22T21:13:55.419Z,17.70
2019-02-22T21:16:22.714Z,18.35
2019-02-22T21:18:50.036Z,18.10
2019-02-22T21:21:17.341Z,19.48
2019-02-22T21:23:44.646Z,16.80
2019-02-22T21:26:11.949Z,19.55
2019-02-22T21:28:39.284Z,22.00
2019-02-22T21:31:06.602Z,19.30
2019-02-22T21:33:33.921Z,19.55
2019-02-22T21:36:01.226Z,20.08
2019-02-22T21:38:28.522Z,20.02
2019-02-22T21:40:55.840Z,21.73
2019-02-22T21:43:23.139Z,21.15
2019-02-22T21:45:50.450Z,20.90
2019-02-22T21:48:27.254Z,20.15
2019-02-22T21:50:46.700Z,21.33
2019-02-22T21:53:14.027Z,20.32
2019-02-22T21:55:41.332Z,20.05
2019-02-22T21:58:08.663Z,20.90
2019-02-22T22:00:35.971Z,21.57
2019-02-22T22:03:03.282Z,21.87
2019-02-22T22:05:30.582Z,22.07
2019-02-22T22:07:57.919Z,22.40
2019-02-22T22:10:25.228Z,21.90
2019-02-22T22:12:52.526Z,22.52
2019-02-22T22:15:19.842Z,22.25
2019-02-22T22:17:47.120Z,22.13
2019-02-22T22:20:14.445Z,23.27
2019-02-22T22:22:41.742Z,22.90
2019-02-22T22:25:15.598Z,22.62
2019-02-22T22:27:42.830Z,22.48
2019-02-22T22:30:11.214Z,23.73
2019-02-22T22:32:38.524Z,23.95
2019-02-22T22:35:06.801Z,23.85
2019-02-22T22:37:34.094Z,23.25
2019-02-22T22:40:01.404Z,23.30
2019-02-22T22:42:28.702Z,23.90
2019-02-22T22:44:56.023Z,24.32
2019-02-22T22:47:23.387Z,23.20
2019-02-22T22:49:50.696Z,22.98
2019-02-22T22:52:17.990Z,24.60
2019-02-22T22:54:45.323Z,23.90
2019-02-22T22:57:12.619Z,23.83
2019-02-22T22:59:39.909Z,26.20
2019-02-22T23:02:07.370Z,26.87
2019-02-22T23:04:34.666Z,25.35
2019-02-22T23:07:01.977Z,26.30
2019-02-22T23:09:29.359Z,23.65
2019-02-22T23:11:56.750Z,23.25
2019-02-22T23:14:24.058Z,23.92
2019-02-22T23:16:51.348Z,22.98
2019-02-22T23:19:18.678Z,24.92
2019-02-22T23:21:45.967Z,25.10
2019-02-22T23:24:13.282Z,25.23
2019-02-22T23:26:40.571Z,26.02
2019-02-22T23:29:07.871Z,25.45
2019-02-22T23:31:35.186Z,25.35
2019-02-22T23:34:02.486Z,24.18
2019-02-22T23:36:29.784Z,25.75
2019-02-22T23:38:57.102Z,24.82
2019-02-22T23:41:24.435Z,24.05
2019-02-22T23:43:51.725Z,25.60
2019-02-22T23:46:19.031Z,25.40
2019-02-22T23:48:46.371Z,24.80
2019-02-22T23:51:13.666Z,25.20
2019-02-22T23:53:40.959Z,27.35
2019-02-22T23:56:08.274Z,27.02
2019-02-22T23:58:35.563Z,26.52
